sensor_id;sensor_type;location;lat;lon;timestamp;P1;durP1;ratioP1;P2;durP2;ratioP2
42420;SDS011;28063;48.140;11.588;2024-03-02T00:00:10;1.63;;;1.40;;
42420;SDS011;28063;48.140;11.588;2024-03-02T00:02:45;1.75;;;1.55;;
42420;SDS011;28063;48.140;11.588;2024-03-02T00:05:12;1.60;;;1.50;;
42420;SDS011;28063;48.140;11.588;2024-03-02T00:07:41;1.40;;;1.30;;
42420;SDS011;28063;48.140;11.588;2024-03-02T00:10:08;2.65;;;1.90;;
42420;SDS011;28063;48.140;11.588;2024-03-02T00:12:39;1.35;;;1.15;;
42420;SDS011;28063;48.140;11.588;2024-03-02T00:17:53;1.20;;;1.10;;
42420;SDS011;28063;48.140;11.588;2024-03-02T00:20:21;1.35;;;1.30;;
42420;SDS011;28063;48.140;11.588;2024-03-02T00:22:48;1.60;;;1.50;;
42420;SDS011;28063;48.140;11.588;2024-03-02T00:25:14;1.50;;;1.40;;
42420;SDS011;28063;48.140;11.588;2024-03-02T00:27:40;1.90;;;1.63;;
42420;SDS011;28063;48.140;11.588;2024-03-02T00:30:16;1.52;;;1.33;;
42420;SDS011;28063;48.140;11.588;2024-03-02T00:32:52;1.88;;;1.50;;
42420;SDS011;28063;48.140;11.588;2024-03-02T00:35:18;2.10;;;1.90;;
42420;SDS011;28063;48.140;11.588;2024-03-02T00:37:45;3.15;;;2.03;;
42420;SDS011;28063;48.140;11.588;2024-03-02T00:40:12;1.77;;;1.67;;
42420;SDS011;28063;48.140;11.588;2024-03-02T00:42:39;2.15;;;1.95;;
42420;SDS011;28063;48.140;11.588;2024-03-02T00:45:07;1.60;;;1.50;;
42420;SDS011;28063;48.140;11.588;2024-03-02T00:47:38;2.08;;;1.85;;
42420;SDS011;28063;48.140;11.588;2024-03-02T00:50:05;2.60;;;2.40;;
42420;SDS011;28063;48.140;11.588;2024-03-02T00:52:31;2.85;;;1.70;;
42420;SDS011;28063;48.140;11.588;2024-03-02T00:54:58;2.83;;;2.45;;
42420;SDS011;28063;48.140;11.588;2024-03-02T00:57:24;3.28;;;2.42;;
42420;SDS011;28063;48.140;11.588;2024-03-02T00:59:51;3.10;;;2.53;;
42420;SDS011;28063;48.140;11.588;2024-03-02T01:02:17;3.40;;;2.80;;
42420;SDS011;28063;48.140;11.588;2024-03-02T01:04:45;2.65;;;2.33;;
42420;SDS011;28063;48.140;11.588;2024-03-02T01:07:11;3.88;;;3.47;;
42420;SDS011;28063;48.140;11.588;2024-03-02T01:09:37;4.25;;;3.30;;
42420;SDS011;28063;48.140;11.588;2024-03-02T01:12:03;4.43;;;3.55;;
42420;SDS011;28063;48.140;11.588;2024-03-02T01:14:30;4.25;;;3.30;;
42420;SDS011;28063;48.140;11.588;2024-03-02T01:16:56;4.03;;;3.05;;
42420;SDS011;28063;48.140;11.588;2024-03-02T01:19:23;3.42;;;2.80;;
42420;SDS011;28063;48.140;11.588;2024-03-02T01:21:49;3.58;;;2.70;;
42420;SDS011;28063;48.140;11.588;2024-03-02T01:24:15;2.90;;;2.30;;
42420;SDS011;28063;48.140;11.588;2024-03-02T01:26:42;2.47;;;2.08;;
42420;SDS011;28063;48.140;11.588;2024-03-02T01:29:08;2.15;;;1.95;;
42420;SDS011;28063;48.140;11.588;2024-03-02T01:31:34;2.70;;;2.40;;
42420;SDS011;28063;48.140;11.588;2024-03-02T01:34:00;1.70;;;1.60;;
42420;SDS011;28063;48.140;11.588;2024-03-02T01:36:26;1.85;;;1.73;;
42420;SDS011;28063;48.140;11.588;2024-03-02T01:38:52;1.58;;;1.48;;
42420;SDS011;28063;48.140;11.588;2024-03-02T01:41:18;1.73;;;1.63;;
42420;SDS011;28063;48.140;11.588;2024-03-02T01:43:44;2.13;;;1.83;;
42420;SDS011;28063;48.140;11.588;2024-03-02T01:46:10;2.45;;;2.25;;
42420;SDS011;28063;48.140;11.588;2024-03-02T01:48:36;2.55;;;2.35;;
42420;SDS011;28063;48.140;11.588;2024-03-02T01:51:03;2.50;;;2.30;;
42420;SDS011;28063;48.140;11.588;2024-03-02T01:53:31;2.33;;;2.08;;
42420;SDS011;28063;48.140;11.588;2024-03-02T01:55:57;2.20;;;1.85;;
42420;SDS011;28063;48.140;11.588;2024-03-02T01:58:23;2.38;;;2.17;;
42420;SDS011;28063;48.140;11.588;2024-03-02T02:00:49;2.40;;;1.85;;
42420;SDS011;28063;48.140;11.588;2024-03-02T02:03:15;2.40;;;2.05;;
42420;SDS011;28063;48.140;11.588;2024-03-02T02:05:42;1.65;;;1.55;;
42420;SDS011;28063;48.140;11.588;2024-03-02T02:08:08;2.22;;;2.00;;
42420;SDS011;28063;48.140;11.588;2024-03-02T02:10:34;1.98;;;1.77;;
42420;SDS011;28063;48.140;11.588;2024-03-02T02:13:00;1.52;;;1.42;;
42420;SDS011;28063;48.140;11.588;2024-03-02T02:15:28;1.85;;;1.73;;
42420;SDS011;28063;48.140;11.588;2024-03-02T02:17:55;2.10;;;1.90;;
42420;SDS011;28063;48.140;11.588;2024-03-02T02:20:21;2.58;;;2.38;;
42420;SDS011;28063;48.140;11.588;2024-03-02T02:25:24;2.67;;;2.47;;
42420;SDS011;28063;48.140;11.588;2024-03-02T02:27:50;3.17;;;2.88;;
42420;SDS011;28063;48.140;11.588;2024-03-02T02:30:23;3.28;;;2.58;;
42420;SDS011;28063;48.140;11.588;2024-03-02T02:32:49;2.53;;;2.33;;
42420;SDS011;28063;48.140;11.588;2024-03-02T02:35:16;3.58;;;2.88;;
42420;SDS011;28063;48.140;11.588;2024-03-02T02:37:42;3.40;;;2.90;;
42420;SDS011;28063;48.140;11.588;2024-03-02T02:40:09;4.43;;;3.67;;
42420;SDS011;28063;48.140;11.588;2024-03-02T02:42:35;4.45;;;3.45;;
42420;SDS011;28063;48.140;11.588;2024-03-02T02:45:01;5.60;;;3.85;;
42420;SDS011;28063;48.140;11.588;2024-03-02T02:47:27;4.95;;;3.95;;
42420;SDS011;28063;48.140;11.588;2024-03-02T02:49:54;3.97;;;3.53;;
42420;SDS011;28063;48.140;11.588;2024-03-02T02:52:21;4.18;;;3.50;;
42420;SDS011;28063;48.140;11.588;2024-03-02T02:54:47;4.07;;;3.40;;
42420;SDS011;28063;48.140;11.588;2024-03-02T02:57:13;3.67;;;3.30;;
42420;SDS011;28063;48.140;11.588;2024-03-02T02:59:39;4.18;;;3.08;;
42420;SDS011;28063;48.140;11.588;2024-03-02T03:02:05;2.85;;;2.55;;
42420;SDS011;28063;48.140;11.588;2024-03-02T03:04:31;2.25;;;2.05;;
42420;SDS011;28063;48.140;11.588;2024-03-02T03:06:57;3.08;;;2.45;;
42420;SDS011;28063;48.140;11.588;2024-03-02T03:09:23;2.15;;;1.95;;
42420;SDS011;28063;48.140;11.588;2024-03-02T03:11:50;2.22;;;2.03;;
42420;SDS011;28063;48.140;11.588;2024-03-02T03:14:16;1.85;;;1.65;;
42420;SDS011;28063;48.140;11.588;2024-03-02T03:16:42;2.05;;;1.88;;
42420;SDS011;28063;48.140;11.588;2024-03-02T03:19:08;1.65;;;1.55;;
42420;SDS011;28063;48.140;11.588;2024-03-02T03:21:34;1.52;;;1.42;;
42420;SDS011;28063;48.140;11.588;2024-03-02T03:24:00;1.67;;;1.50;;
42420;SDS011;28063;48.140;11.588;2024-03-02T03:26:27;2.28;;;1.92;;
42420;SDS011;28063;48.140;11.588;2024-03-02T03:28:53;1.88;;;1.77;;
42420;SDS011;28063;48.140;11.588;2024-03-02T03:31:19;1.58;;;1.48;;
42420;SDS011;28063;48.140;11.588;2024-03-02T03:33:45;1.83;;;1.63;;
42420;SDS011;28063;48.140;11.588;2024-03-02T03:36:11;2.22;;;1.63;;
42420;SDS011;28063;48.140;11.588;2024-03-02T03:38:37;2.30;;;2.00;;
42420;SDS011;28063;48.140;11.588;2024-03-02T03:41:03;2.70;;;1.90;;
42420;SDS011;28063;48.140;11.588;2024-03-02T03:43:29;1.70;;;1.60;;
42420;SDS011;28063;48.140;11.588;2024-03-02T03:45:55;1.70;;;1.60;;
42420;SDS011;28063;48.140;11.588;2024-03-02T03:48:21;1.40;;;1.30;;
42420;SDS011;28063;48.140;11.588;2024-03-02T03:50:48;1.40;;;1.30;;
42420;SDS011;28063;48.140;11.588;2024-03-02T03:53:14;0.90;;;0.90;;
42420;SDS011;28063;48.140;11.588;2024-03-02T03:55:40;2.28;;;1.60;;
42420;SDS011;28063;48.140;11.588;2024-03-02T03:58:06;1.90;;;1.30;;
42420;SDS011;28063;48.140;11.588;2024-03-02T04:00:32;1.35;;;1.25;;
42420;SDS011;28063;48.140;11.588;2024-03-02T04:02:58;1.88;;;1.55;;
42420;SDS011;28063;48.140;11.588;2024-03-02T04:05:24;1.50;;;1.40;;
42420;SDS011;28063;48.140;11.588;2024-03-02T04:07:50;1.95;;;1.75;;
42420;SDS011;28063;48.140;11.588;2024-03-02T04:10:17;2.03;;;1.83;;
42420;SDS011;28063;48.140;11.588;2024-03-02T04:12:43;1.60;;;1.50;;
42420;SDS011;28063;48.140;11.588;2024-03-02T04:15:09;2.00;;;1.83;;
42420;SDS011;28063;48.140;11.588;2024-03-02T04:17:35;2.33;;;2.13;;
42420;SDS011;28063;48.140;11.588;2024-03-02T04:20:02;1.67;;;1.58;;
42420;SDS011;28063;48.140;11.588;2024-03-02T04:22:30;1.77;;;1.63;;
42420;SDS011;28063;48.140;11.588;2024-03-02T04:24:56;2.60;;;2.22;;
42420;SDS011;28063;48.140;11.588;2024-03-02T04:27:22;3.15;;;2.50;;
42420;SDS011;28063;48.140;11.588;2024-03-02T04:29:48;2.70;;;2.50;;
42420;SDS011;28063;48.140;11.588;2024-03-02T04:32:14;3.67;;;2.85;;
42420;SDS011;28063;48.140;11.588;2024-03-02T04:34:41;3.33;;;2.70;;
42420;SDS011;28063;48.140;11.588;2024-03-02T04:37:07;3.50;;;3.08;;
42420;SDS011;28063;48.140;11.588;2024-03-02T04:39:34;3.75;;;2.78;;
42420;SDS011;28063;48.140;11.588;2024-03-02T04:42:00;2.85;;;2.58;;
42420;SDS011;28063;48.140;11.588;2024-03-02T04:44:27;3.03;;;2.72;;
42420;SDS011;28063;48.140;11.588;2024-03-02T04:46:54;3.85;;;2.92;;
42420;SDS011;28063;48.140;11.588;2024-03-02T04:49:20;2.85;;;2.65;;
42420;SDS011;28063;48.140;11.588;2024-03-02T04:51:46;2.63;;;2.42;;
42420;SDS011;28063;48.140;11.588;2024-03-02T04:54:12;2.25;;;2.05;;
42420;SDS011;28063;48.140;11.588;2024-03-02T04:56:39;2.50;;;2.30;;
42420;SDS011;28063;48.140;11.588;2024-03-02T04:59:09;2.15;;;1.95;;
42420;SDS011;28063;48.140;11.588;2024-03-02T05:01:35;1.80;;;1.60;;
42420;SDS011;28063;48.140;11.588;2024-03-02T05:04:02;2.15;;;1.80;;
42420;SDS011;28063;48.140;11.588;2024-03-02T05:06:28;1.67;;;1.58;;
42420;SDS011;28063;48.140;11.588;2024-03-02T05:08:55;1.95;;;1.85;;
42420;SDS011;28063;48.140;11.588;2024-03-02T05:11:21;1.60;;;1.40;;
42420;SDS011;28063;48.140;11.588;2024-03-02T05:14:06;1.65;;;1.55;;
42420;SDS011;28063;48.140;11.588;2024-03-02T05:16:35;1.77;;;1.67;;
42420;SDS011;28063;48.140;11.588;2024-03-02T05:19:06;1.77;;;1.67;;
42420;SDS011;28063;48.140;11.588;2024-03-02T05:21:33;2.35;;;2.08;;
42420;SDS011;28063;48.140;11.588;2024-03-02T05:23:59;2.05;;;1.85;;
42420;SDS011;28063;48.140;11.588;2024-03-02T05:26:25;2.58;;;2.20;;
42420;SDS011;28063;48.140;11.588;2024-03-02T05:28:51;2.53;;;2.22;;
42420;SDS011;28063;48.140;11.588;2024-03-02T05:31:18;3.28;;;2.28;;
42420;SDS011;28063;48.140;11.588;2024-03-02T05:33:44;2.20;;;1.98;;
42420;SDS011;28063;48.140;11.588;2024-03-02T05:36:10;1.98;;;1.77;;
42420;SDS011;28063;48.140;11.588;2024-03-02T05:38:36;2.05;;;1.80;;
42420;SDS011;28063;48.140;11.588;2024-03-02T05:41:02;1.88;;;1.73;;
42420;SDS011;28063;48.140;11.588;2024-03-02T05:43:29;1.65;;;1.40;;
42420;SDS011;28063;48.140;11.588;2024-03-02T05:45:55;1.30;;;1.20;;
42420;SDS011;28063;48.140;11.588;2024-03-02T05:48:21;1.77;;;1.58;;
42420;SDS011;28063;48.140;11.588;2024-03-02T05:50:48;1.50;;;1.40;;
42420;SDS011;28063;48.140;11.588;2024-03-02T05:53:14;1.52;;;1.30;;
42420;SDS011;28063;48.140;11.588;2024-03-02T05:55:40;1.45;;;1.35;;
42420;SDS011;28063;48.140;11.588;2024-03-02T05:58:06;1.48;;;1.27;;
42420;SDS011;28063;48.140;11.588;2024-03-02T06:00:48;1.40;;;1.30;;
42420;SDS011;28063;48.140;11.588;2024-03-02T06:03:14;1.50;;;1.33;;
42420;SDS011;28063;48.140;11.588;2024-03-02T06:05:40;1.08;;;1.08;;
42420;SDS011;28063;48.140;11.588;2024-03-02T06:08:06;1.17;;;1.17;;
42420;SDS011;28063;48.140;11.588;2024-03-02T06:10:32;1.30;;;1.20;;
42420;SDS011;28063;48.140;11.588;2024-03-02T06:12:59;1.80;;;1.50;;
42420;SDS011;28063;48.140;11.588;2024-03-02T06:15:25;1.70;;;1.60;;
42420;SDS011;28063;48.140;11.588;2024-03-02T06:17:51;1.70;;;1.60;;
42420;SDS011;28063;48.140;11.588;2024-03-02T06:20:17;2.75;;;2.15;;
42420;SDS011;28063;48.140;11.588;2024-03-02T06:22:43;2.38;;;2.17;;
42420;SDS011;28063;48.140;11.588;2024-03-02T06:25:09;2.80;;;2.25;;
42420;SDS011;28063;48.140;11.588;2024-03-02T06:27:36;2.83;;;2.30;;
42420;SDS011;28063;48.140;11.588;2024-03-02T06:30:02;3.08;;;2.42;;
42420;SDS011;28063;48.140;11.588;2024-03-02T06:32:29;2.25;;;2.05;;
42420;SDS011;28063;48.140;11.588;2024-03-02T06:34:55;2.25;;;2.05;;
42420;SDS011;28063;48.140;11.588;2024-03-02T06:37:21;2.03;;;1.92;;
42420;SDS011;28063;48.140;11.588;2024-03-02T06:39:47;2.60;;;2.20;;
42420;SDS011;28063;48.140;11.588;2024-03-02T06:42:13;2.42;;;2.08;;
42420;SDS011;28063;48.140;11.588;2024-03-02T06:44:39;2.30;;;2.10;;
42420;SDS011;28063;48.140;11.588;2024-03-02T06:47:05;2.20;;;1.92;;
42420;SDS011;28063;48.140;11.588;2024-03-02T06:49:31;2.35;;;1.98;;
42420;SDS011;28063;48.140;11.588;2024-03-02T06:51:57;1.95;;;1.80;;
42420;SDS011;28063;48.140;11.588;2024-03-02T06:54:23;1.77;;;1.67;;
42420;SDS011;28063;48.140;11.588;2024-03-02T06:56:50;2.65;;;1.80;;
42420;SDS011;28063;48.140;11.588;2024-03-02T06:59:16;1.77;;;1.67;;
42420;SDS011;28063;48.140;11.588;2024-03-02T07:01:42;1.60;;;1.50;;
42420;SDS011;28063;48.140;11.588;2024-03-02T07:04:09;1.90;;;1.70;;
42420;SDS011;28063;48.140;11.588;2024-03-02T07:06:35;1.60;;;1.50;;
42420;SDS011;28063;48.140;11.588;2024-03-02T07:09:01;1.73;;;1.63;;
42420;SDS011;28063;48.140;11.588;2024-03-02T07:11:27;1.67;;;1.58;;
42420;SDS011;28063;48.140;11.588;2024-03-02T07:13:53;1.50;;;1.40;;
42420;SDS011;28063;48.140;11.588;2024-03-02T07:16:19;1.40;;;1.30;;
42420;SDS011;28063;48.140;11.588;2024-03-02T07:18:58;1.00;;;1.00;;
42420;SDS011;28063;48.140;11.588;2024-03-02T07:21:24;1.70;;;1.50;;
42420;SDS011;28063;48.140;11.588;2024-03-02T07:23:50;1.98;;;1.83;;
42420;SDS011;28063;48.140;11.588;2024-03-02T07:26:16;2.10;;;1.90;;
42420;SDS011;28063;48.140;11.588;2024-03-02T07:28:46;2.83;;;2.03;;
42420;SDS011;28063;48.140;11.588;2024-03-02T07:31:15;2.97;;;2.55;;
42420;SDS011;28063;48.140;11.588;2024-03-02T07:33:41;2.28;;;2.08;;
42420;SDS011;28063;48.140;11.588;2024-03-02T07:36:07;2.42;;;2.20;;
42420;SDS011;28063;48.140;11.588;2024-03-02T07:38:33;2.75;;;2.10;;
42420;SDS011;28063;48.140;11.588;2024-03-02T07:41:00;2.00;;;1.85;;
42420;SDS011;28063;48.140;11.588;2024-03-02T07:43:26;2.35;;;2.10;;
42420;SDS011;28063;48.140;11.588;2024-03-02T07:45:52;2.40;;;2.13;;
42420;SDS011;28063;48.140;11.588;2024-03-02T07:48:18;4.38;;;3.17;;
42420;SDS011;28063;48.140;11.588;2024-03-02T07:50:44;4.25;;;3.40;;
42420;SDS011;28063;48.140;11.588;2024-03-02T07:53:11;4.43;;;3.47;;
42420;SDS011;28063;48.140;11.588;2024-03-02T07:55:37;3.63;;;2.95;;
42420;SDS011;28063;48.140;11.588;2024-03-02T07:58:03;3.67;;;3.08;;
42420;SDS011;28063;48.140;11.588;2024-03-02T08:00:29;3.92;;;3.08;;
42420;SDS011;28063;48.140;11.588;2024-03-02T08:02:55;4.63;;;3.70;;
42420;SDS011;28063;48.140;11.588;2024-03-02T08:05:21;4.75;;;3.15;;
42420;SDS011;28063;48.140;11.588;2024-03-02T08:07:47;4.18;;;3.15;;
42420;SDS011;28063;48.140;11.588;2024-03-02T08:10:17;3.97;;;3.05;;
42420;SDS011;28063;48.140;11.588;2024-03-02T08:12:44;4.55;;;3.28;;
42420;SDS011;28063;48.140;11.588;2024-03-02T08:15:10;4.07;;;2.95;;
42420;SDS011;28063;48.140;11.588;2024-03-02T08:17:39;3.72;;;2.95;;
42420;SDS011;28063;48.140;11.588;2024-03-02T08:20:13;3.00;;;2.38;;
42420;SDS011;28063;48.140;11.588;2024-03-02T08:22:39;2.75;;;2.35;;
42420;SDS011;28063;48.140;11.588;2024-03-02T08:25:06;3.30;;;3.00;;
42420;SDS011;28063;48.140;11.588;2024-03-02T08:27:32;4.32;;;3.03;;
42420;SDS011;28063;48.140;11.588;2024-03-02T08:29:59;3.08;;;2.78;;
42420;SDS011;28063;48.140;11.588;2024-03-02T08:32:25;2.92;;;2.47;;
42420;SDS011;28063;48.140;11.588;2024-03-02T08:34:51;2.10;;;1.88;;
42420;SDS011;28063;48.140;11.588;2024-03-02T08:37:17;4.22;;;3.55;;
42420;SDS011;28063;48.140;11.588;2024-03-02T08:39:44;7.03;;;4.82;;
42420;SDS011;28063;48.140;11.588;2024-03-02T08:42:10;5.57;;;4.20;;
42420;SDS011;28063;48.140;11.588;2024-03-02T08:44:36;4.40;;;3.80;;
42420;SDS011;28063;48.140;11.588;2024-03-02T08:47:03;5.07;;;3.85;;
42420;SDS011;28063;48.140;11.588;2024-03-02T08:49:29;5.45;;;4.18;;
42420;SDS011;28063;48.140;11.588;2024-03-02T08:51:55;5.65;;;4.40;;
42420;SDS011;28063;48.140;11.588;2024-03-02T08:54:21;7.40;;;5.50;;
42420;SDS011;28063;48.140;11.588;2024-03-02T08:56:48;8.55;;;6.55;;
42420;SDS011;28063;48.140;11.588;2024-03-02T08:59:14;7.60;;;5.88;;
42420;SDS011;28063;48.140;11.588;2024-03-02T09:01:40;8.30;;;6.50;;
42420;SDS011;28063;48.140;11.588;2024-03-02T09:04:07;10.57;;;7.97;;
42420;SDS011;28063;48.140;11.588;2024-03-02T09:06:36;9.93;;;7.35;;
42420;SDS011;28063;48.140;11.588;2024-03-02T09:09:02;6.57;;;5.53;;
42420;SDS011;28063;48.140;11.588;2024-03-02T09:11:29;7.93;;;6.32;;
42420;SDS011;28063;48.140;11.588;2024-03-02T09:13:55;8.45;;;6.15;;
42420;SDS011;28063;48.140;11.588;2024-03-02T09:16:22;10.77;;;7.95;;
42420;SDS011;28063;48.140;11.588;2024-03-02T09:18:49;10.57;;;7.53;;
42420;SDS011;28063;48.140;11.588;2024-03-02T09:21:15;10.73;;;7.80;;
42420;SDS011;28063;48.140;11.588;2024-03-02T09:23:41;9.35;;;7.65;;
42420;SDS011;28063;48.140;11.588;2024-03-02T09:26:09;8.90;;;6.68;;
42420;SDS011;28063;48.140;11.588;2024-03-02T09:28:35;7.07;;;6.20;;
42420;SDS011;28063;48.140;11.588;2024-03-02T09:31:01;7.00;;;5.65;;
42420;SDS011;28063;48.140;11.588;2024-03-02T09:33:27;5.07;;;4.57;;
42420;SDS011;28063;48.140;11.588;2024-03-02T09:35:53;7.20;;;5.60;;
42420;SDS011;28063;48.140;11.588;2024-03-02T09:38:19;9.52;;;6.85;;
42420;SDS011;28063;48.140;11.588;2024-03-02T09:40:45;7.80;;;5.90;;
42420;SDS011;28063;48.140;11.588;2024-03-02T09:43:11;7.40;;;5.63;;
42420;SDS011;28063;48.140;11.588;2024-03-02T09:45:38;7.60;;;5.80;;
42420;SDS011;28063;48.140;11.588;2024-03-02T09:48:05;6.13;;;4.70;;
42420;SDS011;28063;48.140;11.588;2024-03-02T09:50:31;6.38;;;4.13;;
42420;SDS011;28063;48.140;11.588;2024-03-02T09:52:57;4.65;;;3.78;;
42420;SDS011;28063;48.140;11.588;2024-03-02T09:55:24;6.82;;;4.18;;
42420;SDS011;28063;48.140;11.588;2024-03-02T09:57:53;4.45;;;3.50;;
42420;SDS011;28063;48.140;11.588;2024-03-02T10:00:21;4.68;;;4.15;;
42420;SDS011;28063;48.140;11.588;2024-03-02T10:02:47;4.57;;;4.03;;
42420;SDS011;28063;48.140;11.588;2024-03-02T10:05:22;5.43;;;4.18;;
42420;SDS011;28063;48.140;11.588;2024-03-02T10:08:02;5.75;;;4.72;;
42420;SDS011;28063;48.140;11.588;2024-03-02T10:10:35;5.00;;;4.40;;
42420;SDS011;28063;48.140;11.588;2024-03-02T10:13:04;5.82;;;4.35;;
42420;SDS011;28063;48.140;11.588;2024-03-02T10:15:31;7.05;;;4.50;;
42420;SDS011;28063;48.140;11.588;2024-03-02T10:17:57;8.40;;;5.68;;
42420;SDS011;28063;48.140;11.588;2024-03-02T10:20:24;8.57;;;6.35;;
42420;SDS011;28063;48.140;11.588;2024-03-02T10:22:50;9.32;;;5.82;;
42420;SDS011;28063;48.140;11.588;2024-03-02T10:25:32;7.68;;;5.70;;
42420;SDS011;28063;48.140;11.588;2024-03-02T10:27:58;6.97;;;5.35;;
42420;SDS011;28063;48.140;11.588;2024-03-02T10:30:25;4.03;;;3.63;;
42420;SDS011;28063;48.140;11.588;2024-03-02T10:32:52;4.13;;;3.20;;
42420;SDS011;28063;48.140;11.588;2024-03-02T10:35:19;6.15;;;4.70;;
42420;SDS011;28063;48.140;11.588;2024-03-02T10:37:45;5.97;;;4.70;;
42420;SDS011;28063;48.140;11.588;2024-03-02T10:40:12;4.97;;;4.07;;
42420;SDS011;28063;48.140;11.588;2024-03-02T10:42:39;5.47;;;3.53;;
42420;SDS011;28063;48.140;11.588;2024-03-02T10:45:07;6.43;;;4.75;;
42420;SDS011;28063;48.140;11.588;2024-03-02T10:47:37;7.65;;;4.85;;
42420;SDS011;28063;48.140;11.588;2024-03-02T10:50:06;5.18;;;3.88;;
42420;SDS011;28063;48.140;11.588;2024-03-02T10:52:36;5.53;;;3.78;;
42420;SDS011;28063;48.140;11.588;2024-03-02T10:55:02;3.92;;;3.45;;
42420;SDS011;28063;48.140;11.588;2024-03-02T11:02:51;7.47;;;5.43;;
42420;SDS011;28063;48.140;11.588;2024-03-02T11:05:28;7.07;;;5.20;;
42420;SDS011;28063;48.140;11.588;2024-03-02T11:07:57;10.63;;;6.80;;
42420;SDS011;28063;48.140;11.588;2024-03-02T11:10:27;9.57;;;5.72;;
42420;SDS011;28063;48.140;11.588;2024-03-02T11:12:59;8.50;;;6.20;;
42420;SDS011;28063;48.140;11.588;2024-03-02T11:15:27;10.82;;;7.15;;
42420;SDS011;28063;48.140;11.588;2024-03-02T11:17:53;11.27;;;7.57;;
42420;SDS011;28063;48.140;11.588;2024-03-02T11:20:19;11.48;;;7.15;;
42420;SDS011;28063;48.140;11.588;2024-03-02T11:22:46;15.60;;;9.05;;
42420;SDS011;28063;48.140;11.588;2024-03-02T11:25:25;17.02;;;10.60;;
42420;SDS011;28063;48.140;11.588;2024-03-02T11:32:59;11.32;;;8.23;;
42420;SDS011;28063;48.140;11.588;2024-03-02T11:35:28;15.70;;;9.95;;
42420;SDS011;28063;48.140;11.588;2024-03-02T11:37:54;15.38;;;9.25;;
42420;SDS011;28063;48.140;11.588;2024-03-02T11:40:27;13.98;;;8.93;;
42420;SDS011;28063;48.140;11.588;2024-03-02T11:42:54;11.10;;;8.13;;
42420;SDS011;28063;48.140;11.588;2024-03-02T11:45:26;10.98;;;7.13;;
42420;SDS011;28063;48.140;11.588;2024-03-02T11:47:57;14.60;;;9.85;;
42420;SDS011;28063;48.140;11.588;2024-03-02T11:50:33;13.75;;;9.20;;
42420;SDS011;28063;48.140;11.588;2024-03-02T11:53:00;12.07;;;8.73;;
42420;SDS011;28063;48.140;11.588;2024-03-02T11:55:26;13.10;;;7.68;;
42420;SDS011;28063;48.140;11.588;2024-03-02T11:57:53;11.50;;;8.25;;
42420;SDS011;28063;48.140;11.588;2024-03-02T12:00:19;12.68;;;7.43;;
42420;SDS011;28063;48.140;11.588;2024-03-02T12:02:59;9.32;;;6.55;;
42420;SDS011;28063;48.140;11.588;2024-03-02T12:05:26;8.30;;;5.03;;
42420;SDS011;28063;48.140;11.588;2024-03-02T12:08:03;7.03;;;4.65;;
42420;SDS011;28063;48.140;11.588;2024-03-02T12:10:30;6.20;;;4.38;;
42420;SDS011;28063;48.140;11.588;2024-03-02T12:15:23;11.45;;;8.18;;
42420;SDS011;28063;48.140;11.588;2024-03-02T12:17:52;10.48;;;7.10;;
42420;SDS011;28063;48.140;11.588;2024-03-02T12:20:18;13.00;;;8.18;;
42420;SDS011;28063;48.140;11.588;2024-03-02T12:22:44;15.32;;;9.75;;
42420;SDS011;28063;48.140;11.588;2024-03-02T12:25:11;11.63;;;7.95;;
42420;SDS011;28063;48.140;11.588;2024-03-02T12:27:38;9.75;;;6.93;;
42420;SDS011;28063;48.140;11.588;2024-03-02T12:30:05;10.32;;;7.70;;
42420;SDS011;28063;48.140;11.588;2024-03-02T12:32:33;13.48;;;9.30;;
42420;SDS011;28063;48.140;11.588;2024-03-02T12:34:59;12.75;;;9.23;;
42420;SDS011;28063;48.140;11.588;2024-03-02T12:37:25;15.30;;;10.90;;
42420;SDS011;28063;48.140;11.588;2024-03-02T12:39:53;19.60;;;13.18;;
42420;SDS011;28063;48.140;11.588;2024-03-02T12:42:19;22.20;;;14.20;;
42420;SDS011;28063;48.140;11.588;2024-03-02T12:44:45;22.15;;;12.98;;
42420;SDS011;28063;48.140;11.588;2024-03-02T12:47:12;19.15;;;14.23;;
42420;SDS011;28063;48.140;11.588;2024-03-02T12:49:39;21.55;;;14.50;;
42420;SDS011;28063;48.140;11.588;2024-03-02T12:52:06;22.40;;;15.13;;
42420;SDS011;28063;48.140;11.588;2024-03-02T12:54:32;20.60;;;13.95;;
42420;SDS011;28063;48.140;11.588;2024-03-02T12:56:59;20.90;;;14.25;;
42420;SDS011;28063;48.140;11.588;2024-03-02T12:59:25;19.13;;;13.82;;
42420;SDS011;28063;48.140;11.588;2024-03-02T13:01:54;18.60;;;13.30;;
42420;SDS011;28063;48.140;11.588;2024-03-02T13:04:23;20.27;;;13.50;;
42420;SDS011;28063;48.140;11.588;2024-03-02T13:06:51;23.02;;;14.48;;
42420;SDS011;28063;48.140;11.588;2024-03-02T13:09:17;19.75;;;14.77;;
42420;SDS011;28063;48.140;11.588;2024-03-02T13:11:43;21.48;;;14.45;;
42420;SDS011;28063;48.140;11.588;2024-03-02T13:14:10;20.08;;;14.88;;
42420;SDS011;28063;48.140;11.588;2024-03-02T13:16:39;21.75;;;15.40;;
42420;SDS011;28063;48.140;11.588;2024-03-02T13:19:10;20.02;;;14.75;;
42420;SDS011;28063;48.140;11.588;2024-03-02T13:21:37;21.85;;;15.02;;
42420;SDS011;28063;48.140;11.588;2024-03-02T13:24:04;22.40;;;14.75;;
42420;SDS011;28063;48.140;11.588;2024-03-02T13:26:30;20.73;;;15.13;;
42420;SDS011;28063;48.140;11.588;2024-03-02T13:28:56;22.00;;;14.63;;
42420;SDS011;28063;48.140;11.588;2024-03-02T13:31:22;20.20;;;14.35;;
42420;SDS011;28063;48.140;11.588;2024-03-02T13:33:48;20.08;;;14.40;;
42420;SDS011;28063;48.140;11.588;2024-03-02T13:36:14;21.70;;;14.15;;
42420;SDS011;28063;48.140;11.588;2024-03-02T13:38:41;15.30;;;11.60;;
42420;SDS011;28063;48.140;11.588;2024-03-02T13:41:07;17.52;;;12.48;;
42420;SDS011;28063;48.140;11.588;2024-03-02T13:43:33;18.45;;;12.02;;
42420;SDS011;28063;48.140;11.588;2024-03-02T13:46:02;18.48;;;13.00;;
42420;SDS011;28063;48.140;11.588;2024-03-02T13:48:28;21.05;;;13.40;;
42420;SDS011;28063;48.140;11.588;2024-03-02T13:50:55;18.30;;;12.60;;
42420;SDS011;28063;48.140;11.588;2024-03-02T13:53:22;20.15;;;14.88;;
42420;SDS011;28063;48.140;11.588;2024-03-02T13:55:48;16.35;;;12.90;;
42420;SDS011;28063;48.140;11.588;2024-03-02T13:58:14;16.55;;;12.13;;
42420;SDS011;28063;48.140;11.588;2024-03-02T14:00:41;15.60;;;11.27;;
42420;SDS011;28063;48.140;11.588;2024-03-02T14:03:07;16.40;;;11.48;;
42420;SDS011;28063;48.140;11.588;2024-03-02T14:05:33;17.88;;;11.60;;
42420;SDS011;28063;48.140;11.588;2024-03-02T14:07:59;17.05;;;10.93;;
42420;SDS011;28063;48.140;11.588;2024-03-02T14:10:26;15.38;;;10.88;;
42420;SDS011;28063;48.140;11.588;2024-03-02T14:12:53;13.38;;;10.02;;
42420;SDS011;28063;48.140;11.588;2024-03-02T14:15:20;16.60;;;10.05;;
42420;SDS011;28063;48.140;11.588;2024-03-02T14:17:46;11.95;;;8.48;;
42420;SDS011;28063;48.140;11.588;2024-03-02T14:20:12;11.02;;;8.18;;
42420;SDS011;28063;48.140;11.588;2024-03-02T14:22:39;12.85;;;8.48;;
42420;SDS011;28063;48.140;11.588;2024-03-02T14:25:05;14.02;;;10.73;;
42420;SDS011;28063;48.140;11.588;2024-03-02T14:27:31;15.95;;;11.13;;
42420;SDS011;28063;48.140;11.588;2024-03-02T14:29:58;12.93;;;9.45;;
42420;SDS011;28063;48.140;11.588;2024-03-02T14:32:24;14.68;;;9.65;;
42420;SDS011;28063;48.140;11.588;2024-03-02T14:34:50;14.23;;;10.38;;
42420;SDS011;28063;48.140;11.588;2024-03-02T14:37:16;12.18;;;9.13;;
42420;SDS011;28063;48.140;11.588;2024-03-02T14:39:42;11.40;;;8.20;;
42420;SDS011;28063;48.140;11.588;2024-03-02T14:42:08;12.70;;;9.02;;
42420;SDS011;28063;48.140;11.588;2024-03-02T14:44:34;14.45;;;10.50;;
42420;SDS011;28063;48.140;11.588;2024-03-02T14:47:01;15.18;;;10.98;;